Arrey, New Mexico
Current Conditions -  °F | °C
As of 6:53 PM on Sunday 25 Jan 2015 (Local Time) from KTCS Reporting Station
Clear Clear  
Wind Chill: 46°   Ceiling: Unl
Heat Index: 48°   Visibility: 10mi
Dew Point: 20°   Wind: 5mph
Humidity: 33%   Direction: 170°S
Pressure: 30.26"   Gusts: NA
Location:  32.79°N, 107.32°W
Report Text: KTCS 260153Z AUTO 17004KT 10SM CLR 09/M07 A3026 RMK AO2 SLP229 T00891067 TSNO
Loading
Personal Weather Stations






























Interactive Weather Map New forecast layout! Learn more

10-Day Weather Forecast

Advertisements
Track Severe Weather on mobile